Time;durP1;ratioP1;P1;durP2;ratioP2;P2;SDS_P1;SDS_P2;PMS_P1;PMS_P2;Temp;Humidity;BMP_temperature;BMP_pressure;BME280_temperature;BME280_humidity;BME280_pressure;Samples;Min_cycle;Max_cycle;Signal;HPM_P1;HPM_P2
2022/05/28 00:01:21;;;;;;;5.58;5.08;;;;;;;8.22;100.00;98621.11;1699095;83;21084;-70
2022/05/28 00:03:48;;;;;;;7.70;4.47;;;;;;;8.22;100.00;98633.68;1696448;84;21064;-70
2022/05/28 00:06:21;;;;;;;6.15;4.80;;;;;;;8.22;100.00;98646.51;1695878;84;20929;-70
2022/05/28 00:08:48;;;;;;;7.10;4.85;;;;;;;8.22;100.00;98636.36;1700412;84;21051;-69
2022/05/28 00:11:26;;;;;;;9.63;4.87;;;;;;;8.21;100.00;98638.23;1701185;82;20905;-70
2022/05/28 00:13:54;;;;;;;6.75;5.10;;;;;;;8.22;100.00;98654.53;1703961;84;21476;-69
2022/05/28 00:16:22;;;;;;;6.08;4.85;;;;;;;8.23;100.00;98658.83;1696834;84;20909;-70
2022/05/28 00:18:49;;;;;;;5.55;5.15;;;;;;;8.22;100.00;98653.19;1698413;84;20980;-69
2022/05/28 00:21:16;;;;;;;4.90;4.47;;;;;;;8.20;100.00;98653.98;1699416;83;21092;-68
2022/05/28 00:23:44;;;;;;;6.50;5.00;;;;;;;8.21;100.00;98645.45;1700631;84;20901;-68
2022/05/28 00:26:12;;;;;;;5.72;5.22;;;;;;;8.21;100.00;98633.42;1703124;84;21158;-68
2022/05/28 00:28:39;;;;;;;5.20;4.80;;;;;;;8.21;100.00;98636.09;1698926;84;20997;-68
2022/05/28 00:31:06;;;;;;;5.37;4.87;;;;;;;8.16;100.00;98636.87;1700927;83;20913;-70
2022/05/28 00:33:33;;;;;;;5.50;5.00;;;;;;;8.15;100.00;98636.58;1697059;83;20874;-69
2022/05/28 00:36:00;;;;;;;5.50;5.00;;;;;;;8.16;100.00;98634.20;1698430;84;21125;-69
2022/05/28 00:38:28;;;;;;;5.67;5.17;;;;;;;8.15;100.00;98621.87;1700836;84;21308;-69
2022/05/28 00:40:58;;;;;;;5.20;4.78;;;;;;;8.16;100.00;98643.55;1697680;83;20933;-69
2022/05/28 00:43:27;;;;;;;7.65;5.33;;;;;;;8.15;100.00;98649.41;1696315;84;20881;-68
2022/05/28 00:46:11;;;;;;;6.87;5.62;;;;;;;8.14;100.00;98644.34;1703521;84;21020;-69
2022/05/28 00:48:44;;;;;;;5.20;4.80;;;;;;;8.14;100.00;98645.67;1700410;84;20937;-71
2022/05/28 00:51:18;;;;;;;5.87;5.05;;;;;;;8.14;100.00;98640.33;1703572;84;21417;-72
2022/05/28 00:53:44;;;;;;;6.00;5.50;;;;;;;8.13;100.00;98627.50;1694375;83;21483;-68
2022/05/28 00:56:11;;;;;;;5.75;5.17;;;;;;;8.12;100.00;98638.45;1697860;83;21487;-69
2022/05/28 00:58:38;;;;;;;5.90;5.33;;;;;;;8.12;100.00;98633.89;1695834;84;21005;-69
2022/05/28 01:01:07;;;;;;;5.33;4.83;;;;;;;8.11;100.00;98651.02;1697780;84;20858;-72
2022/05/28 01:03:54;;;;;;;6.00;5.42;;;;;;;8.12;100.00;98648.59;1697756;84;22758;-71
2022/05/28 01:06:47;;;;;;;5.97;5.17;;;;;;;8.12;100.00;98635.77;1583198;90;20949;-72
2022/05/28 01:09:36;;;;;;;6.20;5.22;;;;;;;8.09;100.00;98627.74;1609675;87;20907;-73
2022/05/28 01:12:06;;;;;;;;;;;;;;;8.07;100.00;98633.88;1578423;89;20997;-71
2022/05/28 01:14:54;;;;;;;5.58;4.83;;;;;;;8.02;100.00;98643.74;1574679;89;20173;-71
2022/05/28 01:17:37;;;;;;;6.20;5.60;;;;;;;7.99;100.00;98637.59;1609596;87;21187;-69
2022/05/28 01:20:09;;;;;;;6.70;5.90;;;;;;;7.98;100.00;98613.25;1576390;89;20917;-71
2022/05/28 01:23:06;;;;;;;9.23;5.90;;;;;;;7.96;100.00;98629.53;1578326;90;21465;-71
2022/05/28 01:25:58;;;;;;;11.65;5.65;;;;;;;7.99;100.00;98629.03;1579271;89;20957;-72
2022/05/28 01:28:42;;;;;;;6.72;5.97;;;;;;;8.00;100.00;98638.64;1578714;89;21445;-70
2022/05/28 01:31:09;;;;;;;7.67;5.83;;;;;;;8.03;100.00;98639.45;1578786;90;21272;-71
2022/05/28 01:33:36;;;;;;;6.95;5.85;;;;;;;8.03;100.00;98626.09;1578592;89;21108;-70
2022/05/28 01:36:07;;;;;;;5.97;5.08;;;;;;;8.01;100.00;98628.25;1578643;89;20974;-69
2022/05/28 01:38:36;;;;;;;5.87;5.25;;;;;;;7.99;100.00;98626.36;1578465;90;20998;-69
2022/05/28 01:41:06;;;;;;;6.25;5.67;;;;;;;7.94;100.00;98625.80;1578727;89;20958;-71
2022/05/28 01:43:37;;;;;;;8.08;6.35;;;;;;;7.92;100.00;98623.91;1668475;83;21107;-72
2022/05/28 01:46:05;;;;;;;9.80;6.47;;;;;;;7.90;100.00;98618.55;1697612;83;20977;-70
2022/05/28 01:48:32;;;;;;;5.47;5.08;;;;;;;7.84;100.00;98622.25;1696843;84;20997;-70
2022/05/28 01:50:59;;;;;;;6.72;6.12;;;;;;;7.78;100.00;98624.62;1700150;84;21047;-70
2022/05/28 01:56:12;;;;;;;7.55;6.85;;;;;;;7.69;100.00;98624.30;1700548;84;21162;-71
2022/05/28 01:58:39;;;;;;;10.20;6.58;;;;;;;7.68;100.00;98628.04;1738237;81;21561;-70
2022/05/28 02:01:07;;;;;;;7.65;6.95;;;;;;;7.67;100.00;98624.56;1697951;83;20949;-70
2022/05/28 02:03:37;;;;;;;7.05;6.17;;;;;;;7.66;100.00;98632.83;1699690;84;20925;-71
2022/05/28 02:06:04;;;;;;;8.63;7.83;;;;;;;7.63;100.00;98648.84;1732521;82;20837;-71
2022/05/28 02:08:36;;;;;;;8.00;7.15;;;;;;;7.64;100.00;98645.63;1687081;84;21136;-69
2022/05/28 02:11:13;;;;;;;8.03;7.20;;;;;;;7.69;100.00;98642.98;1707019;83;20941;-71
2022/05/28 02:13:52;;;;;;;8.80;7.83;;;;;;;7.76;100.00;98655.59;1699812;83;21457;-70
2022/05/28 03:12:14;;;;;;;9.15;7.75;;;;;;;8.67;100.00;98655.00;1676523;85;20908;-73
2022/05/28 03:14:43;;;;;;;12.10;8.13;;;;;;;8.74;100.00;98654.22;1677036;84;20940;-72
2022/05/28 03:17:10;;;;;;;9.13;8.15;;;;;;;8.88;100.00;98661.22;1678372;84;21070;-73
2022/05/28 03:19:37;;;;;;;10.35;7.95;;;;;;;9.06;100.00;98667.40;1682981;83;20986;-72
2022/05/28 03:22:04;;;;;;;8.68;7.35;;;;;;;9.10;100.00;98673.84;1663652;85;21157;-73
2022/05/28 03:24:32;;;;;;;;;;;;;;;9.09;100.00;98680.78;1672342;85;21182;-73
2022/05/28 03:26:59;;;;;;;8.43;7.60;;;;;;;9.13;100.00;98683.21;1674574;83;20171;-72
2022/05/28 03:29:26;;;;;;;8.08;7.28;;;;;;;9.06;100.00;98670.62;1680523;85;20956;-72
2022/05/28 03:31:53;;;;;;;8.10;7.37;;;;;;;9.08;100.00;98667.94;1670970;85;20939;-73
2022/05/28 03:34:22;;;;;;;10.32;8.18;;;;;;;9.10;100.00;98663.12;1677458;85;21137;-75
2022/05/28 03:36:50;;;;;;;10.28;8.58;;;;;;;9.16;100.00;98659.91;1652082;84;21229;-74
2022/05/28 03:39:17;;;;;;;12.15;9.05;;;;;;;9.24;100.00;98659.41;1671631;84;20942;-74
2022/05/28 03:41:45;;;;;;;9.70;8.55;;;;;;;9.41;100.00;98667.98;1666731;86;20966;-73
2022/05/28 03:44:12;;;;;;;9.15;8.33;;;;;;;9.48;100.00;98662.38;1680490;85;21056;-73
2022/05/28 03:46:42;;;;;;;9.75;8.75;;;;;;;9.55;100.00;98664.22;1682274;85;20962;-76
2022/05/28 03:49:31;;;;;;;8.70;7.80;;;;;;;9.74;100.00;98664.48;1674204;84;22348;-73
2022/05/28 03:51:58;;;;;;;10.48;8.25;;;;;;;9.81;100.00;98663.67;1662113;84;20943;-73
2022/05/28 03:54:25;;;;;;;7.90;7.10;;;;;;;9.89;100.00;98659.63;1666541;86;20942;-76
2022/05/28 03:56:57;;;;;;;8.75;7.95;;;;;;;9.93;100.00;98658.03;1671301;84;21735;-73
2022/05/28 03:59:24;;;;;;;8.55;7.53;;;;;;;10.05;100.00;98661.22;1673152;84;20923;-74
2022/05/28 04:01:53;;;;;;;9.88;7.80;;;;;;;10.11;100.00;98662.55;1666625;86;21575;-74
2022/05/28 04:04:21;;;;;;;8.88;7.20;;;;;;;10.17;100.00;98661.47;1673437;85;20998;-72
2022/05/28 04:06:48;;;;;;;7.75;6.95;;;;;;;10.21;100.00;98659.83;1666733;86;20907;-74
2022/05/28 04:09:16;;;;;;;8.13;7.33;;;;;;;10.16;100.00;98670.57;1647286;86;20899;-73
2022/05/28 04:11:42;;;;;;;10.70;7.22;;;;;;;10.24;100.00;98672.69;1647355;86;20927;-72
2022/05/28 04:14:09;;;;;;;7.62;6.83;;;;;;;10.30;100.00;98675.66;1666780;86;21108;-74
2022/05/28 04:16:38;;;;;;;7.30;6.58;;;;;;;10.45;100.00;98685.53;1666456;86;21489;-73
2022/05/28 04:19:06;;;;;;;7.17;6.33;;;;;;;10.71;100.00;98679.53;1666695;86;25278;-74
2022/05/28 04:21:33;;;;;;;15.30;5.80;;;;;;;10.88;100.00;98678.64;1665201;84;21034;-74
2022/05/28 04:24:00;;;;;;;7.95;6.60;;;;;;;10.99;100.00;98682.61;1659354;84;21497;-77
2022/05/28 04:26:27;;;;;;;6.75;5.90;;;;;;;11.07;100.00;98700.30;1661327;83;21693;-75
2022/05/28 04:28:55;;;;;;;9.03;6.30;;;;;;;11.03;100.00;98696.55;1672251;83;20907;-74
2022/05/28 04:31:22;;;;;;;4.67;4.35;;;;;;;11.31;100.00;98690.19;1661824;83;21002;-75
2022/05/28 04:33:50;;;;;;;7.78;5.05;;;;;;;11.37;100.00;98682.36;1666777;86;20947;-75
2022/05/28 04:36:17;;;;;;;6.65;4.87;;;;;;;11.38;100.00;98688.78;1667010;86;21441;-73
2022/05/28 04:38:46;;;;;;;6.47;5.17;;;;;;;11.45;100.00;98693.84;1669906;85;20903;-76
2022/05/28 04:41:13;;;;;;;5.35;4.85;;;;;;;11.58;100.00;98690.51;1666539;86;21568;-76
2022/05/28 04:43:40;;;;;;;5.20;4.70;;;;;;;11.83;100.00;98686.55;1666602;86;20904;-76
2022/05/28 04:46:08;;;;;;;7.85;5.17;;;;;;;11.88;100.00;98687.88;1667748;84;20922;-76
2022/05/28 04:48:36;;;;;;;5.20;4.70;;;;;;;12.07;100.00;98686.62;1667746;84;21039;-72
2022/05/28 04:51:04;;;;;;;8.07;4.47;;;;;;;12.17;100.00;98687.30;1681393;85;21461;-73
2022/05/28 04:53:31;;;;;;;4.30;3.90;;;;;;;12.24;100.00;98695.05;1673370;85;20990;-75
2022/05/28 04:55:58;;;;;;;4.85;4.37;;;;;;;12.44;100.00;98693.50;1659844;84;21127;-74
2022/05/28 04:58:27;;;;;;;4.37;3.98;;;;;;;12.42;100.00;98676.83;1657643;85;20948;-73
2022/05/28 05:00:54;;;;;;;5.75;3.52;;;;;;;12.46;100.00;98703.95;1673476;84;21474;-75
2022/05/28 05:03:22;;;;;;;5.17;3.52;;;;;;;12.85;100.00;98700.27;1663692;85;21787;-74
2022/05/28 05:05:50;;;;;;;3.92;3.60;;;;;;;13.07;100.00;98709.12;1659837;84;21560;-74
2022/05/28 05:08:19;;;;;;;;;;;;;;;13.15;100.00;98701.73;1667248;84;21030;-75
2022/05/28 05:10:46;;;;;;;3.92;3.15;;;;;;;13.32;100.00;98705.29;1656714;86;20453;-72
2022/05/28 05:13:14;;;;;;;5.50;3.70;;;;;;;13.29;100.00;98716.66;1675938;85;21014;-70
2022/05/28 05:15:42;;;;;;;6.10;3.40;;;;;;;13.07;100.00;98716.66;1662729;85;21785;-69
2022/05/28 05:18:09;;;;;;;4.53;3.43;;;;;;;13.08;100.00;98717.45;1659905;85;21524;-70
2022/05/28 05:20:37;;;;;;;8.35;3.35;;;;;;;13.00;100.00;98722.15;1678192;84;21064;-70
2022/05/28 05:23:04;;;;;;;4.65;3.50;;;;;;;13.19;100.00;98719.48;1663989;85;20960;-68
2022/05/28 05:25:33;;;;;;;3.65;3.33;;;;;;;13.67;100.00;98717.44;1656756;86;20971;-71
2022/05/28 05:28:00;;;;;;;6.62;3.25;;;;;;;13.99;100.00;98733.37;1646930;85;21496;-69
2022/05/28 05:30:27;;;;;;;4.85;3.08;;;;;;;13.80;100.00;98719.92;1668226;84;20922;-71
2022/05/28 05:32:55;;;;;;;4.42;3.12;;;;;;;13.93;100.00;98727.80;1660277;84;20908;-69
2022/05/28 05:35:22;;;;;;;;;;;;;;;13.73;100.00;98722.98;1668419;84;20995;-72
2022/05/28 05:37:50;;;;;;;3.08;2.77;;;;;;;13.90;100.00;98729.19;1657323;86;20515;-70
2022/05/28 05:40:17;;;;;;;3.37;3.08;;;;;;;13.79;100.00;98712.94;1657148;86;21160;-72
2022/05/28 05:42:45;;;;;;;3.75;3.08;;;;;;;13.67;100.00;98728.74;1671452;84;20918;-69
2022/05/28 05:45:13;;;;;;;4.28;3.37;;;;;;;13.78;100.00;98728.05;1657681;85;20903;-69
2022/05/28 05:47:41;;;;;;;4.03;3.00;;;;;;;14.03;100.00;98733.01;1662744;84;20954;-69
2022/05/28 05:50:09;;;;;;;5.45;3.05;;;;;;;14.59;100.00;98740.66;1666155;85;21429;-70
2022/05/28 05:52:36;;;;;;;4.35;3.17;;;;;;;14.31;100.00;98731.73;1633775;85;21165;-71
2022/05/28 05:55:05;;;;;;;4.85;3.52;;;;;;;14.57;100.00;98739.61;1661777;86;20946;-70
2022/05/28 05:57:32;;;;;;;3.85;2.77;;;;;;;14.43;100.00;98740.66;1655611;84;21003;-71
2022/05/28 05:59:59;;;;;;;4.58;3.15;;;;;;;14.22;100.00;98742.40;1676447;85;20867;-71
2022/05/28 06:02:26;;;;;;;4.92;2.98;;;;;;;14.06;100.00;98734.31;1635897;86;20987;-71
2022/05/28 06:04:53;;;;;;;7.15;3.00;;;;;;;13.72;100.00;98744.88;1699691;84;21262;-70
2022/05/28 06:07:22;;;;;;;5.80;3.15;;;;;;;13.46;100.00;98741.20;1709358;84;20934;-71
2022/05/28 06:09:49;;;;;;;;;;;;;;;13.22;100.00;98743.94;1713021;84;20902;-71
2022/05/28 06:12:15;;;;;;;6.03;2.98;;;;;;;13.47;100.00;98743.34;1710544;84;20122;-72
2022/05/28 06:14:44;;;;;;;3.10;2.80;;;;;;;13.97;100.00;98748.25;1710329;84;21006;-70
2022/05/28 06:17:11;;;;;;;5.15;3.42;;;;;;;14.18;100.00;98748.69;1700512;84;21893;-69
2022/05/28 06:19:37;;;;;;;3.40;3.02;;;;;;;13.70;100.00;98752.45;1700367;84;21556;-70
2022/05/28 06:22:05;;;;;;;3.72;3.20;;;;;;;13.44;100.00;98739.34;1688209;84;20906;-71
2022/05/28 06:24:31;;;;;;;4.03;2.83;;;;;;;13.17;100.00;98746.70;1702122;84;21021;-70
2022/05/28 06:27:00;;;;;;;6.70;2.90;;;;;;;13.11;100.00;98737.09;1701301;84;20962;-70
2022/05/28 06:29:28;;;;;;;3.27;2.98;;;;;;;13.51;100.00;98737.08;1688123;84;21146;-73
2022/05/28 06:31:55;;;;;;;4.95;3.08;;;;;;;13.88;100.00;98743.52;1710470;84;20930;-73
2022/05/28 06:34:23;;;;;;;7.87;2.80;;;;;;;14.09;100.00;98736.44;1710335;84;20902;-68
2022/05/28 06:36:50;;;;;;;4.10;2.60;;;;;;;14.36;100.00;98746.48;1710290;84;20965;-72
2022/05/28 06:39:17;;;;;;;4.70;2.60;;;;;;;14.32;100.00;98746.81;1710735;84;20894;-70
2022/05/28 06:41:44;;;;;;;5.10;2.75;;;;;;;14.65;100.00;98741.36;1688236;84;21747;-68
2022/05/28 06:44:13;;;;;;;4.87;2.70;;;;;;;14.79;100.00;98757.02;1701174;83;20955;-72
2022/05/28 06:46:40;;;;;;;7.62;2.85;;;;;;;15.17;100.00;98760.29;1703361;84;20961;-70
2022/05/28 06:49:09;;;;;;;4.75;2.67;;;;;;;15.05;100.00;98755.16;1710426;84;20930;-74
2022/05/28 06:51:37;;;;;;;4.15;2.67;;;;;;;15.35;100.00;98749.08;1710506;84;21426;-73
2022/05/28 06:54:05;;;;;;;4.55;2.60;;;;;;;14.60;100.00;98741.45;1710304;84;21335;-69
2022/05/28 06:56:32;;;;;;;5.90;3.30;;;;;;;14.74;100.00;98747.11;1710269;84;20977;-69
2022/05/28 06:59:00;;;;;;;4.50;2.80;;;;;;;15.08;100.00;98745.88;1710192;84;21052;-69
2022/05/28 07:01:27;;;;;;;4.25;2.70;;;;;;;15.37;100.00;98745.52;1710256;84;20867;-72
2022/05/28 07:03:54;;;;;;;5.30;3.00;;;;;;;15.48;100.00;98741.23;1705772;84;21640;-73
2022/05/28 07:06:21;;;;;;;3.65;2.35;;;;;;;15.51;100.00;98745.48;1707783;84;23232;-70
2022/05/28 07:08:48;;;;;;;7.93;3.03;;;;;;;15.57;100.00;98741.55;1685205;84;20876;-70
2022/05/28 07:11:15;;;;;;;6.03;2.80;;;;;;;15.27;100.00;98743.61;1710732;84;20883;-70
2022/05/28 07:13:42;;;;;;;4.00;2.70;;;;;;;15.02;100.00;98747.11;1699445;84;20874;-74
2022/05/28 07:16:11;;;;;;;4.75;2.72;;;;;;;14.77;100.00;98737.08;1703515;84;21535;-69
2022/05/28 07:18:41;;;;;;;5.80;2.30;;;;;;;15.16;100.00;98751.12;1702547;84;21175;-69
2022/05/28 07:21:09;;;;;;;7.67;2.77;;;;;;;15.35;100.00;98753.13;1696184;84;20899;-69
2022/05/28 07:23:38;;;;;;;5.33;2.65;;;;;;;15.85;100.00;98753.66;1698120;84;21441;-68
2022/05/28 07:26:13;;;;;;;6.00;2.10;;;;;;;15.73;100.00;98754.20;1710529;84;20946;-69
2022/05/28 07:28:41;;;;;;;4.62;2.50;;;;;;;14.72;100.00;98747.16;1704051;84;21421;-71
2022/05/28 07:31:13;;;;;;;5.05;3.00;;;;;;;15.09;100.00;98756.96;1704027;84;21252;-68
2022/05/28 07:33:43;;;;;;;6.53;2.70;;;;;;;15.20;100.00;98754.83;1709016;84;20990;-72
2022/05/28 07:36:15;;;;;;;3.12;2.70;;;;;;;15.36;100.00;98752.58;1710311;84;20965;-72
2022/05/28 07:38:42;;;;;;;4.15;2.80;;;;;;;15.36;100.00;98752.58;1696131;84;21053;-72
2022/05/28 07:41:13;;;;;;;8.00;3.30;;;;;;;15.51;100.00;98750.10;1710564;84;23966;-73
2022/05/28 07:43:40;;;;;;;3.80;2.65;;;;;;;15.78;100.00;98753.28;1710609;84;21242;-71
2022/05/28 07:46:26;;;;;;;5.50;2.90;;;;;;;15.78;100.00;98753.28;1710405;84;20918;-71
2022/05/28 07:48:55;;;;;;;5.85;2.58;;;;;;;16.07;97.12;98754.98;1710413;84;20970;-72
2022/05/28 08:14:42;;;;;;;3.80;2.17;;;;;;;16.00;91.58;98754.62;1710392;83;20973;-70
2022/05/28 08:17:10;;;;;;;3.98;2.30;;;;;;;16.42;86.49;98767.92;1710422;84;21218;-69
2022/05/28 08:19:39;;;;;;;6.03;2.27;;;;;;;16.48;82.22;98747.14;1710234;84;20930;-68
2022/05/28 08:24:52;;;;;;;7.80;2.37;;;;;;;16.46;82.13;98763.45;1710733;84;20895;-71
2022/05/28 08:27:20;;;;;;;7.72;2.50;;;;;;;16.13;77.33;98759.71;1710555;84;20985;-74
2022/05/28 08:29:47;;;;;;;5.08;2.22;;;;;;;16.16;76.42;98769.13;1710497;84;21308;-71
2022/05/28 08:32:18;;;;;;;5.20;2.20;;;;;;;15.82;73.17;98762.37;1710455;84;20955;-71
2022/05/28 08:34:45;;;;;;;6.50;2.58;;;;;;;16.08;74.35;98761.20;1704317;84;20981;-71
2022/05/28 08:37:12;;;;;;;7.95;3.15;;;;;;;16.16;70.84;98763.70;1688016;84;20886;-69
2022/05/28 08:39:39;;;;;;;4.10;2.70;;;;;;;16.23;70.19;98762.72;1643212;86;20915;-70
2022/05/28 08:42:09;;;;;;;6.12;2.58;;;;;;;16.47;70.89;98752.88;1654768;84;21434;-70
2022/05/28 08:44:40;;;;;;;6.60;2.55;;;;;;;16.52;71.34;98765.49;1589056;86;21449;-70
2022/05/28 08:47:25;;;;;;;3.22;2.55;;;;;;;16.17;71.86;98766.12;1647191;86;21072;-70
2022/05/28 08:49:51;;;;;;;7.45;2.60;;;;;;;15.84;72.39;98768.27;1643464;86;20954;-69
2022/05/28 08:52:38;;;;;;;4.90;2.25;;;;;;;15.78;70.21;98766.25;1646049;86;21101;-74
2022/05/28 08:55:13;;;;;;;9.65;2.50;;;;;;;16.11;72.36;98760.57;1646039;86;21171;-71
2022/05/28 08:58:00;;;;;;;6.70;2.77;;;;;;;16.49;67.87;98758.23;1651933;84;21006;-70
2022/05/28 09:00:49;;;;;;;7.80;3.33;;;;;;;16.70;69.83;98760.38;1652166;84;21418;-69
2022/05/28 09:03:24;;;;;;;5.37;2.47;;;;;;;17.12;67.11;98755.41;1647084;86;20950;-69
2022/05/28 09:06:14;;;;;;;4.08;2.17;;;;;;;17.25;66.71;98768.62;1648940;86;21018;-69
2022/05/28 09:08:52;;;;;;;4.95;2.17;;;;;;;17.51;65.06;98764.55;1648859;84;21161;-69
2022/05/28 09:11:42;;;;;;;8.75;2.30;;;;;;;16.95;67.05;98762.94;1648441;84;21078;-72
2022/05/28 09:14:26;;;;;;;7.45;1.87;;;;;;;16.90;71.75;98761.20;1649791;85;21604;-72
2022/05/28 09:17:07;;;;;;;5.03;2.00;;;;;;;17.00;65.89;98775.03;1650922;84;20890;-73
2022/05/28 09:19:42;;;;;;;10.65;2.33;;;;;;;16.76;63.30;98754.27;1652623;84;20904;-72
2022/05/28 09:22:09;;;;;;;9.10;2.47;;;;;;;16.05;69.04;98747.73;1625570;86;22278;-71
2022/05/28 09:24:37;;;;;;;3.20;2.27;;;;;;;15.91;69.51;98756.47;1646722;86;20946;-70
2022/05/28 09:27:19;;;;;;;11.88;3.33;;;;;;;15.90;72.36;98763.53;1647539;84;20911;-71
2022/05/28 09:30:08;;;;;;;4.08;2.20;;;;;;;16.03;68.40;98756.70;1651967;86;20994;-70
2022/05/28 09:32:50;;;;;;;5.78;2.30;;;;;;;16.23;65.71;98743.77;1617045;88;20926;-71
2022/05/28 09:35:54;;;;;;;4.53;2.08;;;;;;;16.28;64.72;98758.52;1620348;88;21176;-71
2022/05/28 09:38:38;;;;;;;7.47;2.70;;;;;;;16.27;64.62;98765.05;1618410;88;21737;-70
2022/05/28 09:41:29;;;;;;;9.28;2.35;;;;;;;16.70;63.73;98767.14;1618326;88;20898;-72
2022/05/28 09:44:26;;;;;;;5.50;2.10;;;;;;;16.83;59.76;98769.00;1618388;88;20975;-71
2022/05/28 09:46:54;;;;;;;4.30;1.82;;;;;;;16.92;55.66;98765.73;1618651;88;21029;-71
2022/05/28 09:49:25;;;;;;;5.00;2.12;;;;;;;17.00;51.88;98747.09;1618545;88;21394;-71
2022/05/28 09:51:59;;;;;;;4.92;1.50;;;;;;;16.91;51.63;98769.56;1618348;88;20989;-73
2022/05/28 09:54:30;;;;;;;3.10;1.67;;;;;;;17.08;50.23;98762.60;1597221;88;20897;-73
2022/05/28 09:57:24;;;;;;;4.35;1.70;;;;;;;17.06;51.29;98750.70;1618330;88;20909;-69
2022/05/28 10:00:03;;;;;;;11.50;1.70;;;;;;;16.98;50.37;98766.94;1618576;88;21069;-66
2022/05/28 10:04:28;;;;;;;2.92;1.70;;;;;;;16.54;51.54;98746.46;1618329;88;21552;-72
2022/05/28 10:05:17;;;;;;;3.33;1.40;;;;;;;16.54;51.54;98746.46;1597029;88;20862;-70
2022/05/28 10:07:50;;;;;;;3.70;1.72;;;;;;;16.36;51.12;98757.75;1618805;88;20850;-72
2022/05/28 10:10:30;;;;;;;3.77;1.67;;;;;;;16.54;50.35;98769.48;1632745;86;20966;-69
2022/05/28 10:13:12;;;;;;;3.77;1.50;;;;;;;16.79;49.36;98756.38;1606884;87;20974;-67
2022/05/28 10:16:00;;;;;;;6.25;1.70;;;;;;;16.86;51.04;98758.87;1607365;86;21209;-72
2022/05/28 10:18:38;;;;;;;;;;;;;;;17.21;48.86;98758.15;1612400;86;20930;-72
2022/05/28 10:21:19;;;;;;;7.03;1.95;;;;;;;17.45;48.04;98754.98;1613281;86;20207;-72
2022/05/28 10:23:53;;;;;;;2.55;1.85;;;;;;;17.77;47.74;98758.56;1613562;88;21006;-72
2022/05/28 10:26:30;;;;;;;5.80;1.70;;;;;;;17.31;47.36;98747.78;1643469;85;21078;-72
2022/05/28 10:29:04;;;;;;;1.90;1.37;;;;;;;16.90;50.72;98750.36;1645304;85;21840;-71
2022/05/28 10:31:37;;;;;;;3.08;2.00;;;;;;;16.62;49.34;98748.39;1596892;87;21134;-71
2022/05/28 10:34:05;;;;;;;3.20;2.00;;;;;;;16.38;52.33;98747.97;1646737;85;20972;-72
2022/05/28 10:36:35;;;;;;;3.47;1.87;;;;;;;16.28;51.13;98753.10;1646761;85;21587;-69
2022/05/28 10:39:09;;;;;;;3.30;1.85;;;;;;;16.58;51.10;98749.33;1646631;85;21100;-70
2022/05/28 10:41:37;;;;;;;2.83;1.65;;;;;;;17.38;48.49;98747.88;1647210;85;21813;-71
2022/05/28 10:44:05;;;;;;;2.80;1.72;;;;;;;17.21;44.68;98731.83;1648309;85;20941;-71
2022/05/28 10:46:51;;;;;;;6.78;1.90;;;;;;;17.51;44.97;98733.35;1624268;86;21097;-72
2022/05/28 10:49:54;;;;;;;4.50;1.52;;;;;;;17.98;46.20;98734.31;1644051;85;21099;-72
2022/05/28 10:52:48;;;;;;;2.67;1.90;;;;;;;18.30;45.32;98740.84;1656381;86;21006;-71
2022/05/28 10:55:48;;;;;;;6.33;2.20;;;;;;;18.41;42.65;98723.07;1643503;84;21497;-73
2022/05/28 10:58:33;;;;;;;5.50;1.80;;;;;;;18.41;43.88;98736.66;1652128;86;20907;-73
2022/05/28 11:01:05;;;;;;;4.33;1.70;;;;;;;17.63;43.24;98715.88;1656094;85;21061;-73
2022/05/28 11:04:07;;;;;;;3.15;1.50;;;;;;;17.25;44.11;98718.45;1650367;86;21523;-73
2022/05/28 11:07:09;;;;;;;1.67;1.50;;;;;;;17.08;43.63;98723.29;1651147;86;21042;-70
2022/05/28 11:10:08;;;;;;;2.95;1.72;;;;;;;17.04;43.18;98739.94;1653127;86;21379;-73
2022/05/28 11:12:54;;;;;;;8.23;2.25;;;;;;;16.61;43.97;98729.73;1656366;86;20947;-72
2022/05/28 11:15:56;;;;;;;2.77;1.77;;;;;;;16.29;47.56;98740.62;1653704;86;21001;-71
2022/05/28 11:18:49;;;;;;;3.30;1.72;;;;;;;16.26;48.29;98744.48;1653473;86;20950;-72
2022/05/28 11:21:50;;;;;;;4.03;2.00;;;;;;;16.17;47.56;98739.57;1653587;86;20946;-69
2022/05/28 11:24:53;;;;;;;4.37;2.00;;;;;;;16.11;48.47;98736.20;1653444;86;21177;-70
2022/05/28 11:27:48;;;;;;;5.97;2.65;;;;;;;16.29;47.93;98726.25;1653373;86;21465;-71
2022/05/28 11:30:40;;;;;;;3.12;1.98;;;;;;;17.17;48.57;98736.84;1631492;86;20879;-71
2022/05/28 11:33:35;;;;;;;2.62;1.82;;;;;;;17.56;44.52;98737.26;1653582;86;20883;-72
2022/05/28 11:36:28;;;;;;;2.95;2.08;;;;;;;17.57;45.75;98730.17;1653688;86;21093;-72
2022/05/28 11:39:00;;;;;;;3.27;1.60;;;;;;;17.60;46.62;98726.02;1653578;86;20942;-69
2022/05/28 11:41:44;;;;;;;4.47;1.65;;;;;;;17.79;43.02;98715.63;1653127;85;20930;-70
2022/05/28 11:44:32;;;;;;;5.08;1.82;;;;;;;17.43;43.49;98745.80;1591979;88;20938;-70
2022/05/28 11:47:11;;;;;;;3.75;1.65;;;;;;;16.96;44.13;98740.73;1591943;90;20954;-73
2022/05/28 11:53:15;;;;;;;3.92;1.82;;;;;;;17.54;44.98;98748.98;1592309;90;21177;-72
2022/05/28 11:55:45;;;;;;;5.17;1.80;;;;;;;17.31;43.22;98747.78;1592184;90;21539;-68
2022/05/28 11:58:32;;;;;;;4.65;1.80;;;;;;;16.86;47.15;98747.23;1592109;90;21013;-71
2022/05/28 12:01:10;;;;;;;4.42;1.45;;;;;;;17.07;47.41;98736.02;1592512;90;20993;-67
2022/05/28 12:03:37;;;;;;;7.33;1.67;;;;;;;17.22;43.56;98725.30;1592120;90;20965;-71
2022/05/28 12:06:10;;;;;;;2.62;1.60;;;;;;;17.12;45.53;98729.66;1592393;90;21335;-74
2022/05/28 12:08:48;;;;;;;8.23;1.55;;;;;;;17.44;42.47;98731.14;1592195;90;21513;-68
2022/05/28 12:11:32;;;;;;;4.20;1.72;;;;;;;17.17;40.76;98735.48;1591342;90;21560;-70
2022/05/28 12:14:26;;;;;;;2.85;1.75;;;;;;;17.22;37.56;98724.48;1592179;90;20937;-71
2022/05/28 12:17:16;;;;;;;1.30;1.12;;;;;;;17.30;37.27;98735.35;1592214;88;20890;-69
2022/05/28 12:19:59;;;;;;;5.17;1.65;;;;;;;17.43;40.08;98731.45;1592828;86;21178;-69
2022/05/28 12:22:33;;;;;;;2.42;1.27;;;;;;;17.55;39.60;98740.53;1653959;86;20991;-72
2022/05/28 12:25:08;;;;;;;3.10;1.82;;;;;;;17.54;39.93;98721.85;1653674;86;21473;-72
2022/05/28 12:28:03;;;;;;;5.05;1.70;;;;;;;17.53;40.96;98729.77;1651224;86;20918;-72
2022/05/28 12:30:47;;;;;;;2.33;1.80;;;;;;;17.30;39.26;98702.80;1653093;86;20871;-67
2022/05/28 12:33:32;;;;;;;5.37;1.55;;;;;;;17.72;40.50;98732.95;1653648;86;21155;-69
2022/05/28 12:36:26;;;;;;;4.87;2.25;;;;;;;17.75;39.61;98725.52;1653701;86;20899;-67
2022/05/28 12:39:06;;;;;;;4.85;2.30;;;;;;;17.48;40.22;98721.79;1648604;86;20965;-67
2022/05/28 12:41:37;;;;;;;4.97;2.52;;;;;;;17.82;41.33;98724.27;1653532;86;21516;-69
2022/05/28 12:44:20;;;;;;;3.92;1.50;;;;;;;17.72;40.88;98728.87;1653733;86;21005;-68
2022/05/28 12:46:55;;;;;;;3.25;1.67;;;;;;;17.71;40.13;98725.94;1653457;86;21233;-68
2022/05/28 12:49:33;;;;;;;4.83;1.60;;;;;;;17.73;40.51;98722.89;1652547;86;21006;-68
2022/05/28 12:52:14;;;;;;;2.50;1.50;;;;;;;17.70;40.92;98731.67;1653641;86;20879;-66
2022/05/28 12:54:42;;;;;;;5.53;1.57;;;;;;;17.83;40.78;98725.30;1653673;86;20991;-69
2022/05/28 12:57:29;;;;;;;3.27;1.70;;;;;;;17.83;40.06;98723.94;1631948;86;20942;-66
2022/05/28 13:00:07;;;;;;;3.75;1.50;;;;;;;17.92;40.80;98728.00;1653702;86;21263;-67
2022/05/28 13:02:42;;;;;;;3.10;1.72;;;;;;;17.94;41.45;98733.34;1653488;86;20911;-68
2022/05/28 13:05:38;;;;;;;3.45;1.72;;;;;;;18.03;40.33;98714.34;1653801;86;20902;-70
2022/05/28 13:08:17;;;;;;;5.20;1.80;;;;;;;17.98;39.38;98723.98;1653422;86;20911;-71
2022/05/28 13:10:54;;;;;;;1.77;1.25;;;;;;;18.14;37.88;98716.92;1653549;86;20895;-72
2022/05/28 13:13:54;;;;;;;2.92;1.67;;;;;;;18.19;39.51;98711.88;1653436;86;21339;-72
2022/05/28 13:16:35;;;;;;;5.25;1.85;;;;;;;17.90;40.24;98724.24;1653769;86;20998;-69
2022/05/28 13:19:25;;;;;;;5.25;1.60;;;;;;;18.05;39.98;98715.36;1653529;86;20998;-71
2022/05/28 13:21:58;;;;;;;3.47;1.60;;;;;;;18.13;39.64;98728.92;1653644;86;21580;-70
2022/05/28 13:24:46;;;;;;;2.47;1.60;;;;;;;18.41;40.69;98727.94;1653603;86;20946;-74
2022/05/28 13:27:49;;;;;;;3.02;1.70;;;;;;;18.59;38.03;98723.25;1653455;86;21173;-71
2022/05/28 13:30:31;;;;;;;4.00;1.77;;;;;;;18.71;39.38;98736.12;1653366;86;20906;-70
2022/05/28 13:33:10;;;;;;;8.18;2.00;;;;;;;19.09;39.44;98732.59;1646096;86;21454;-68